createdAt,value
2023-05-22T00:01:26.631Z,101695.06
2023-05-22T00:03:54.729Z,101695.72
2023-05-22T00:06:22.320Z,101692.69
2023-05-22T00:08:57.883Z,101683.66
2023-05-22T00:11:24.308Z,101683.47
2023-05-22T00:13:51.356Z,101687.06
2023-05-22T00:16:17.860Z,101680.44
2023-05-22T00:18:44.979Z,101676.69
2023-05-22T00:21:13.204Z,101673.78
2023-05-22T00:23:39.687Z,101670.41
2023-05-22T00:26:06.194Z,101661.00
2023-05-22T00:28:32.650Z,101657.78
2023-05-22T00:30:59.892Z,101653.84
2023-05-22T00:33:26.403Z,101661.38
2023-05-22T00:35:52.907Z,101655.38
2023-05-22T00:38:34.510Z,101656.53
2023-05-22T00:41:03.887Z,101657.03
2023-05-22T00:43:31.017Z,101657.03
2023-05-22T00:45:57.774Z,101648.53
2023-05-22T00:48:25.071Z,101649.72
2023-05-22T00:50:54.086Z,101654.81
2023-05-22T00:53:22.053Z,101651.03
2023-05-22T00:55:48.940Z,101648.31
2023-05-22T00:58:26.711Z,101641.34
2023-05-22T01:00:53.673Z,101634.22
2023-05-22T01:03:27.022Z,101632.34
2023-05-22T01:05:54.007Z,101631.31
2023-05-22T01:08:20.918Z,101633.69
2023-05-22T01:10:57.027Z,101627.25
2023-05-22T01:13:31.991Z,101622.81
2023-05-22T01:16:06.507Z,101621.78
2023-05-22T01:19:19.630Z,101618.88
2023-05-22T01:22:06.452Z,101611.91
2023-05-22T01:24:37.276Z,101609.38
2023-05-22T01:27:28.924Z,101607.84
2023-05-22T01:30:17.946Z,101607.84
2023-05-22T01:32:47.669Z,101617.00
2023-05-22T01:35:19.201Z,101611.56
2023-05-22T01:37:46.870Z,101611.25
2023-05-22T01:40:13.844Z,101623.47
2023-05-22T01:42:41.411Z,101617.19
2023-05-22T01:45:13.986Z,101608.19
2023-05-22T01:47:40.589Z,101616.56
2023-05-22T01:50:08.380Z,101605.16
2023-05-22T01:52:52.309Z,101598.66
2023-05-22T01:55:34.679Z,101600.38
2023-05-22T01:58:16.614Z,101588.13
2023-05-22T02:00:46.074Z,101590.50
2023-05-22T02:03:19.975Z,101586.63
2023-05-22T02:05:51.990Z,101582.88
2023-05-22T02:08:24.384Z,101575.53
2023-05-22T02:10:55.464Z,101574.00
2023-05-22T02:13:22.932Z,101585.25
2023-05-22T02:15:51.037Z,101576.38
2023-05-22T02:18:17.736Z,101577.25
2023-05-22T02:20:46.457Z,101573.50
2023-05-22T02:23:12.892Z,101575.03
2023-05-22T02:25:39.406Z,101582.19
2023-05-22T02:28:05.905Z,101577.94
2023-05-22T02:30:32.753Z,101570.28
2023-05-22T02:33:00.444Z,101572.16
2023-05-22T02:35:27.023Z,101566.16
2023-05-22T02:37:55.726Z,101570.78
2023-05-22T02:40:22.106Z,101569.94
2023-05-22T02:42:48.929Z,101574.19
2023-05-22T02:45:16.029Z,101565.66
2023-05-22T02:47:42.776Z,101566.81
2023-05-22T02:50:09.525Z,101568.88
2023-05-22T02:59:57.618Z,101559.88
2023-05-22T03:02:26.093Z,101560.06
2023-05-22T03:04:58.474Z,101548.31
2023-05-22T03:07:29.849Z,101555.78
2023-05-22T03:09:56.491Z,101550.69
2023-05-22T03:12:23.141Z,101554.25
2023-05-22T03:14:49.824Z,101547.28
2023-05-22T03:17:16.515Z,101550.84
2023-05-22T03:33:48.760Z,101561.38
2023-05-22T03:36:16.033Z,101556.44
2023-05-22T03:38:51.740Z,101559.34
2023-05-22T03:41:18.564Z,101552.00
2023-05-22T03:43:46.638Z,101560.00
2023-05-22T03:46:13.250Z,101562.88
2023-05-22T03:48:39.764Z,101564.34
2023-05-22T03:51:06.867Z,101568.09
2023-05-22T03:53:51.159Z,101577.09
2023-05-22T03:56:17.650Z,101559.94
2023-05-22T03:58:44.179Z,101560.66
2023-05-22T04:01:11.361Z,101555.31
2023-05-22T04:03:38.031Z,101555.28
2023-05-22T04:06:05.901Z,101554.66
2023-05-22T04:08:32.581Z,101555.16
2023-05-22T04:11:05.536Z,101558.88
2023-05-22T04:13:33.300Z,101562.09
2023-05-22T04:16:02.149Z,101559.03
2023-05-22T04:18:37.953Z,101557.88
2023-05-22T04:21:08.228Z,101557.53
2023-05-22T04:23:34.958Z,101562.47
2023-05-22T04:26:02.545Z,101565.88
2023-05-22T04:28:30.484Z,101573.84
2023-05-22T04:31:00.488Z,101591.28
2023-05-22T04:33:26.986Z,101595.66
2023-05-22T04:35:54.492Z,101595.94
2023-05-22T04:38:22.329Z,101602.38
2023-05-22T04:40:49.062Z,101597.13
2023-05-22T04:43:18.946Z,101599.16
2023-05-22T04:45:46.666Z,101600.53
2023-05-22T04:48:13.724Z,101607.69
2023-05-22T04:50:40.419Z,101608.19
2023-05-22T04:53:07.172Z,101617.94
2023-05-22T04:55:37.097Z,101619.78
2023-05-22T04:58:04.330Z,101621.63
2023-05-22T05:00:31.050Z,101619.88
2023-05-22T05:02:57.955Z,101622.09
2023-05-22T05:05:24.519Z,101620.38
2023-05-22T05:07:51.872Z,101622.59
2023-05-22T05:10:19.223Z,101633.28
2023-05-22T05:12:45.791Z,101629.25
2023-05-22T05:15:12.441Z,101621.91
2023-05-22T05:17:39.117Z,101624.47
2023-05-22T05:20:07.424Z,101612.44
2023-05-22T05:22:34.489Z,101625.50
2023-05-22T05:25:01.263Z,101618.56
2023-05-22T05:27:40.111Z,101613.34
2023-05-22T05:30:10.910Z,101608.28
2023-05-22T05:32:38.999Z,101614.75
2023-05-22T05:35:05.736Z,101618.84
2023-05-22T05:37:32.434Z,101608.19
2023-05-22T05:39:58.905Z,101600.03
2023-05-22T05:42:25.388Z,101599.78
2023-05-22T05:44:53.156Z,101611.19
2023-05-22T05:47:19.795Z,101615.13
2023-05-22T05:49:46.305Z,101610.91
2023-05-22T05:52:12.819Z,101609.19
2023-05-22T05:54:39.496Z,101605.31
2023-05-22T05:57:06.892Z,101601.75
2023-05-22T05:59:36.310Z,101601.09
2023-05-22T06:02:02.947Z,101601.59
2023-05-22T06:04:29.424Z,101600.91
2023-05-22T06:06:55.965Z,101604.84
2023-05-22T06:09:30.000Z,101602.47
2023-05-22T06:11:56.836Z,101610.13
2023-05-22T06:14:23.652Z,101595.47
2023-05-22T06:16:50.402Z,101593.09
2023-05-22T06:19:17.208Z,101603.47
2023-05-22T06:21:46.112Z,101598.19
2023-05-22T06:24:12.723Z,101607.59
2023-05-22T06:26:39.466Z,101610.31
2023-05-22T06:29:06.474Z,101602.78
2023-05-22T06:31:48.201Z,101610.28
2023-05-22T06:34:18.252Z,101617.41
2023-05-22T06:36:46.090Z,101619.97
2023-05-22T06:42:15.401Z,101617.34
2023-05-22T06:44:49.538Z,101625.69
2023-05-22T06:47:16.184Z,101629.59
2023-05-22T06:49:46.112Z,101629.56
2023-05-22T06:52:15.814Z,101628.50
2023-05-22T06:54:45.318Z,101619.94
2023-05-22T06:57:21.474Z,101620.63
2023-05-22T06:59:47.996Z,101616.44
2023-05-22T07:02:14.742Z,101618.97
2023-05-22T07:04:54.098Z,101621.84
2023-05-22T07:07:21.148Z,101631.22
2023-05-22T07:09:47.942Z,101632.88
2023-05-22T07:12:14.646Z,101628.22
2023-05-22T07:14:41.075Z,101632.22
2023-05-22T07:17:07.581Z,101636.22
2023-05-22T07:19:35.691Z,101635.66
2023-05-22T07:22:02.329Z,101633.31
2023-05-22T07:24:30.394Z,101637.94
2023-05-22T07:26:56.901Z,101629.69
2023-05-22T07:29:24.687Z,101635.56
2023-05-22T07:31:56.674Z,101630.16
2023-05-22T07:34:23.375Z,101631.94
2023-05-22T07:36:50.099Z,101638.56
2023-05-22T07:39:16.632Z,101632.34
2023-05-22T07:41:57.500Z,101629.69
2023-05-22T07:44:24.784Z,101638.94
2023-05-22T07:46:51.971Z,101626.78
2023-05-22T07:49:20.424Z,101638.09
2023-05-22T07:51:47.208Z,101628.66
2023-05-22T07:54:14.495Z,101637.66
2023-05-22T07:56:41.944Z,101643.88
2023-05-22T07:59:11.905Z,101645.66
2023-05-22T08:01:41.765Z,101637.13
2023-05-22T08:04:08.550Z,101644.19
2023-05-22T08:09:15.954Z,101640.00
2023-05-22T08:11:42.761Z,101651.75
2023-05-22T08:14:09.423Z,101642.97
2023-05-22T08:16:45.340Z,101651.53
2023-05-22T08:19:12.365Z,101651.47
2023-05-22T08:21:39.780Z,101648.72
2023-05-22T08:24:16.808Z,101652.59
2023-05-22T08:26:43.743Z,101644.44
2023-05-22T08:29:10.572Z,101644.91
2023-05-22T08:31:37.691Z,101651.31
2023-05-22T08:34:13.585Z,101645.16
2023-05-22T08:36:46.647Z,101644.78
2023-05-22T08:39:13.183Z,101643.69
2023-05-22T08:41:40.108Z,101630.94
2023-05-22T08:52:28.171Z,101629.75
2023-05-22T08:54:56.105Z,101634.91
2023-05-22T08:57:23.790Z,101636.03
2023-05-22T08:59:50.678Z,101632.50
2023-05-22T09:02:17.447Z,101634.88
2023-05-22T09:04:50.202Z,101625.16
2023-05-22T09:07:16.800Z,101631.56
2023-05-22T09:09:43.324Z,101635.81
2023-05-22T09:22:38.433Z,101620.66
2023-05-22T09:25:05.948Z,101615.16
2023-05-22T09:27:46.485Z,101620.25
2023-05-22T09:30:17.657Z,101617.69
2023-05-22T09:32:54.961Z,101615.56
2023-05-22T09:35:27.926Z,101610.50
2023-05-22T09:37:58.663Z,101619.19
2023-05-22T09:40:27.758Z,101608.22
2023-05-22T09:43:58.689Z,101612.44
2023-05-22T09:56:09.130Z,101606.09
2023-05-22T09:58:43.682Z,101602.03
2023-05-22T10:01:23.477Z,101600.53
2023-05-22T10:04:11.395Z,101601.38
2023-05-22T10:06:54.667Z,101604.53
2023-05-22T10:09:36.880Z,101607.50
2023-05-22T10:12:56.029Z,101607.69
2023-05-22T10:15:25.791Z,101608.94
2023-05-22T10:17:55.189Z,101617.78
2023-05-22T10:20:37.850Z,101617.53
2023-05-22T10:23:22.671Z,101608.56
2023-05-22T10:26:08.137Z,101597.75
2023-05-22T10:28:55.658Z,101602.44
2023-05-22T10:31:40.666Z,101609.44
2023-05-22T10:34:12.863Z,101603.84
2023-05-22T10:37:16.496Z,101596.41
2023-05-22T10:40:16.261Z,101595.44
2023-05-22T10:43:14.984Z,101600.78
2023-05-22T10:45:43.274Z,101587.28
2023-05-22T10:48:12.653Z,101583.47
2023-05-22T10:50:40.706Z,101592.06
2023-05-22T10:53:23.802Z,101588.41
2023-05-22T10:55:52.043Z,101588.28
2023-05-22T10:58:19.189Z,101591.00
2023-05-22T11:00:45.930Z,101592.47
2023-05-22T11:03:17.883Z,101595.34
2023-05-22T11:05:58.367Z,101593.13
2023-05-22T11:08:33.579Z,101595.69
2023-05-22T11:13:52.400Z,101583.91
2023-05-22T11:16:19.490Z,101584.47
2023-05-22T11:18:47.235Z,101578.38
2023-05-22T11:21:25.823Z,101575.56
2023-05-22T11:23:52.500Z,101574.69
2023-05-22T11:26:22.255Z,101569.63
2023-05-22T11:28:53.377Z,101563.84
2023-05-22T11:31:20.997Z,101559.97
2023-05-22T11:33:48.405Z,101565.19
2023-05-22T11:36:16.218Z,101560.19
2023-05-22T11:38:43.297Z,101555.19
2023-05-22T11:41:11.636Z,101559.03
2023-05-22T11:43:38.418Z,101557.44
2023-05-22T11:46:10.658Z,101553.75
2023-05-22T11:48:55.541Z,101557.81
2023-05-22T11:51:22.395Z,101555.66
2023-05-22T11:53:49.008Z,101542.69
2023-05-22T11:56:15.860Z,101551.50
2023-05-22T11:58:42.707Z,101548.50
2023-05-22T12:01:09.364Z,101547.44
2023-05-22T12:03:36.211Z,101550.50
2023-05-22T12:06:03.241Z,101552.06
2023-05-22T12:08:30.309Z,101546.97
2023-05-22T12:11:17.405Z,101554.44
2023-05-22T12:13:44.440Z,101546.06
2023-05-22T12:16:35.404Z,101550.75
2023-05-22T12:19:12.293Z,101556.28
2023-05-22T12:21:52.120Z,101555.09
2023-05-22T12:24:23.589Z,101553.03
2023-05-22T12:27:06.688Z,101547.59
2023-05-22T12:29:34.902Z,101555.28
2023-05-22T12:32:18.470Z,101546.19
2023-05-22T12:34:47.058Z,101549.69
2023-05-22T12:37:26.111Z,101544.63
2023-05-22T12:40:01.189Z,101550.88
2023-05-22T12:42:29.058Z,101548.50
2023-05-22T12:45:04.099Z,101546.69
2023-05-22T12:47:46.946Z,101550.44
2023-05-22T12:50:13.670Z,101544.91
2023-05-22T12:52:51.856Z,101551.94
2023-05-22T12:55:18.770Z,101550.97
2023-05-22T13:05:44.037Z,101562.47
2023-05-22T13:08:23.813Z,101577.13
2023-05-22T13:16:11.829Z,101577.88
2023-05-22T13:18:41.075Z,101576.69
2023-05-22T13:21:14.258Z,101568.81
2023-05-22T13:23:48.988Z,101586.91
2023-05-22T13:30:14.451Z,101578.34
2023-05-22T13:37:03.355Z,101579.38
2023-05-22T13:39:57.753Z,101572.75
2023-05-22T13:43:16.158Z,101578.34
2023-05-22T13:48:46.485Z,101584.72
2023-05-22T13:51:58.329Z,101594.63
2023-05-22T13:54:18.943Z,101606.91
2023-05-22T13:59:38.140Z,101600.03
2023-05-22T14:02:20.546Z,101611.25
2023-05-22T14:05:07.549Z,101610.38
2023-05-22T14:08:13.882Z,101608.69
2023-05-22T14:29:24.378Z,101631.28
2023-05-22T14:35:36.644Z,101624.41
2023-05-22T14:38:36.416Z,101625.19
2023-05-22T14:41:28.531Z,101627.34
2023-05-22T15:09:48.960Z,101646.50
2023-05-22T15:15:22.806Z,101657.94
2023-05-22T15:34:29.642Z,101672.56
2023-05-22T15:37:16.380Z,101672.78
2023-05-22T15:39:57.858Z,101673.84
2023-05-22T15:45:26.443Z,101691.81
2023-05-22T15:50:49.709Z,101694.81
2023-05-22T16:03:19.911Z,101695.81
2023-05-22T16:05:55.856Z,101687.34
2023-05-22T16:11:39.285Z,101685.44
2023-05-22T16:26:46.400Z,101696.78
2023-05-22T16:26:47.797Z,101690.84
2023-05-22T16:29:21.240Z,101696.97
2023-05-22T16:32:09.927Z,101693.63
2023-05-22T16:34:36.790Z,101692.09
2023-05-22T16:39:49.803Z,101703.56
2023-05-22T16:42:34.154Z,101706.34
2023-05-22T16:45:10.346Z,101706.72
2023-05-22T17:00:27.515Z,101705.66
2023-05-22T17:03:40.052Z,101706.88
2023-05-22T17:09:10.014Z,101704.63
2023-05-22T17:11:37.289Z,101727.44
2023-05-22T17:14:07.005Z,101728.13
2023-05-22T17:19:36.691Z,101735.19
2023-05-22T17:22:17.489Z,101729.50
2023-05-22T17:25:02.903Z,101734.59
2023-05-22T17:27:41.694Z,101734.50
2023-05-22T17:30:25.674Z,101739.38
2023-05-22T17:32:58.508Z,101735.16
2023-05-22T17:35:47.499Z,101740.19
2023-05-22T17:38:26.165Z,101739.69
2023-05-22T17:40:57.475Z,101745.91
2023-05-22T17:43:29.547Z,101739.75
2023-05-22T17:46:04.832Z,101746.72
2023-05-22T17:48:47.288Z,101747.50
2023-05-22T17:51:26.112Z,101748.72
2023-05-22T17:54:09.458Z,101739.31
2023-05-22T17:56:46.527Z,101747.88
2023-05-22T18:16:00.416Z,101758.31
2023-05-22T18:18:29.818Z,101753.59
2023-05-22T18:21:21.109Z,101764.72
2023-05-22T18:27:11.719Z,101774.56
2023-05-22T18:29:59.076Z,101766.59
2023-05-22T18:32:25.907Z,101763.22
2023-05-22T18:35:10.364Z,101769.34
2023-05-22T18:38:16.488Z,101778.22
2023-05-22T18:40:43.517Z,101778.97
2023-05-22T18:43:23.736Z,101777.34
2023-05-22T18:46:08.993Z,101783.94
2023-05-22T18:48:51.237Z,101779.81
2023-05-22T18:51:19.900Z,101780.78
2023-05-22T18:57:59.252Z,101781.34
2023-05-22T19:00:32.374Z,101778.88
2023-05-22T19:03:17.322Z,101800.47
2023-05-22T19:05:49.900Z,101793.84
2023-05-22T19:08:28.533Z,101785.31
2023-05-22T19:11:03.537Z,101792.94
2023-05-22T19:13:54.035Z,101788.50
2023-05-22T19:16:28.617Z,101794.28
2023-05-22T19:18:55.743Z,101800.03
2023-05-22T19:21:39.900Z,101801.13
2023-05-22T19:24:18.779Z,101800.25
2023-05-22T19:26:48.857Z,101798.59
2023-05-22T19:29:37.958Z,101803.88
2023-05-22T19:32:05.269Z,101816.03
2023-05-22T19:34:47.959Z,101826.97
2023-05-22T19:37:28.296Z,101830.13
2023-05-22T19:39:55.385Z,101839.59
2023-05-22T19:42:46.406Z,101840.25
2023-05-22T19:45:25.258Z,101844.03
2023-05-22T19:50:45.398Z,101846.81
2023-05-22T19:53:29.069Z,101857.09
2023-05-22T19:56:04.585Z,101859.22
2023-05-22T20:06:31.581Z,101872.47
2023-05-22T20:09:07.224Z,101875.22
2023-05-22T20:11:33.949Z,101882.22
2023-05-22T20:14:02.414Z,101874.41
2023-05-22T20:16:29.639Z,101878.34
2023-05-22T20:18:56.521Z,101892.84
2023-05-22T20:21:41.632Z,101900.34
2023-05-22T20:31:58.206Z,101901.56
2023-05-22T20:37:09.072Z,101909.38
2023-05-22T20:39:50.675Z,101921.16
2023-05-22T20:42:18.134Z,101921.34
2023-05-22T20:47:25.688Z,101930.16
2023-05-22T20:50:05.362Z,101941.25
2023-05-22T20:52:39.168Z,101954.38
2023-05-22T20:55:11.681Z,101947.03
2023-05-22T20:57:38.883Z,101961.19
2023-05-22T21:00:09.096Z,101959.25
2023-05-22T21:02:35.728Z,101956.84
2023-05-22T21:05:02.284Z,101961.25
2023-05-22T21:07:44.155Z,101968.78
2023-05-22T21:10:11.667Z,101977.56
2023-05-22T21:12:45.252Z,101977.34
2023-05-22T21:15:12.314Z,101972.31
2023-05-22T21:17:39.312Z,101976.38
2023-05-22T21:20:21.141Z,101967.16
2023-05-22T21:22:48.412Z,101962.38
2023-05-22T21:25:29.364Z,101977.84
2023-05-22T21:28:10.751Z,101972.31
2023-05-22T21:30:37.495Z,101977.88
2023-05-22T21:33:04.233Z,101989.25
2023-05-22T21:35:44.703Z,101984.44
2023-05-22T21:38:11.239Z,101980.69
2023-05-22T21:43:42.497Z,101973.00
2023-05-22T21:46:10.302Z,101981.28
2023-05-22T21:49:03.800Z,101983.31
2023-05-22T21:54:13.076Z,101980.25
2023-05-22T21:56:39.567Z,101995.06
2023-05-22T21:59:06.195Z,101989.53
2023-05-22T22:01:45.266Z,101988.84
2023-05-22T22:04:12.051Z,101989.16
2023-05-22T22:06:38.818Z,101990.69
2023-05-22T22:09:14.423Z,101984.00
2023-05-22T22:11:41.109Z,101979.28
2023-05-22T22:14:23.295Z,101973.97
2023-05-22T22:16:50.899Z,101980.91
2023-05-22T22:22:01.127Z,101989.16
2023-05-22T22:24:28.331Z,101993.28
2023-05-22T22:27:07.480Z,101982.84
2023-05-22T22:29:34.015Z,101982.38
2023-05-22T22:32:15.984Z,101984.00
2023-05-22T22:34:43.679Z,101984.34
2023-05-22T22:37:10.196Z,101977.72
2023-05-22T22:39:57.245Z,101983.00
2023-05-22T22:42:25.222Z,101978.94
2023-05-22T22:44:52.246Z,101979.13
2023-05-22T22:47:27.911Z,101969.53
2023-05-22T22:49:57.548Z,101978.66
2023-05-22T22:52:37.981Z,101984.50
2023-05-22T22:55:11.101Z,101970.91
2023-05-22T22:57:56.140Z,101987.59
2023-05-22T23:00:22.982Z,101981.78
2023-05-22T23:02:59.481Z,101981.78
2023-05-22T23:05:45.460Z,101987.41
2023-05-22T23:08:24.426Z,101997.56
2023-05-22T23:10:51.016Z,102004.00
2023-05-22T23:13:33.343Z,101992.88
2023-05-22T23:16:15.469Z,101999.59
2023-05-22T23:18:42.150Z,102008.47
2023-05-22T23:21:21.211Z,102007.47
2023-05-22T23:23:48.179Z,102023.25
2023-05-22T23:26:17.909Z,102009.25
2023-05-22T23:28:44.472Z,102009.25
2023-05-22T23:31:31.400Z,102019.28
2023-05-22T23:33:58.898Z,102011.03
2023-05-22T23:36:25.769Z,102019.03
2023-05-22T23:39:05.120Z,102023.91
2023-05-22T23:41:31.815Z,102007.59
2023-05-22T23:46:39.976Z,102022.78
2023-05-22T23:49:22.699Z,102021.56
2023-05-22T23:51:55.440Z,102026.53
2023-05-22T23:54:22.029Z,102023.44
2023-05-22T23:56:57.710Z,102019.59
2023-05-22T23:59:24.284Z,102022.03
